Time;durP1;ratioP1;P1;durP2;ratioP2;P2;SDS_P1;SDS_P2;PMS_P1;PMS_P2;Temp;Humidity;BMP_temperature;BMP_pressure;BME280_temperature;BME280_humidity;BME280_pressure;Samples;Min_cycle;Max_cycle;Signal;HPM_P1;HPM_P2
2022/06/09 00:01:48;;;;;;;19.27;6.35;;;;;;;;;;5138117;27;20046;-48
2022/06/09 00:04:22;;;;;;;11.52;5.20;;;;;;;;;;5143180;27;20107;-49
2022/06/09 00:06:59;;;;;;;10.48;6.00;;;;;;;;;;5140678;27;20710;-47
2022/06/09 00:09:29;;;;;;;7.53;4.53;;;;;;;;;;5141748;27;20038;-47
2022/06/09 00:11:55;;;;;;;9.52;4.88;;;;;;;;;;5141107;27;20043;-51
2022/06/09 00:14:21;;;;;;;9.73;5.10;;;;;;;;;;5141605;27;20034;-50
2022/06/09 00:16:46;;;;;;;12.57;5.40;;;;;;;;;;5144283;27;20046;-46
2022/06/09 00:19:12;;;;;;;10.40;5.50;;;;;;;;;;5142423;27;20126;-47
2022/06/09 00:21:37;;;;;;;6.55;5.38;;;;;;;;;;5139206;27;20068;-47
2022/06/09 00:24:03;;;;;;;7.00;4.47;;;;;;;;;;5141799;27;20051;-49
2022/06/09 00:26:29;;;;;;;7.05;3.53;;;;;;;;;;5139327;27;20160;-49
2022/06/09 00:28:54;;;;;;;7.65;3.85;;;;;;;;;;5136081;27;20150;-48
2022/06/09 00:31:20;;;;;;;10.80;4.70;;;;;;;;;;5137561;27;20479;-46
2022/06/09 00:33:45;;;;;;;6.20;4.70;;;;;;;;;;5138785;27;20083;-48
2022/06/09 00:36:11;;;;;;;9.95;4.97;;;;;;;;;;5142193;27;20138;-45
2022/06/09 00:38:36;;;;;;;10.63;5.82;;;;;;;;;;5141758;27;20046;-45
2022/06/09 00:41:02;;;;;;;5.05;3.78;;;;;;;;;;5142219;27;20050;-45
2022/06/09 00:43:27;;;;;;;12.23;5.40;;;;;;;;;;5139633;27;20035;-44
2022/06/09 00:46:03;;;;;;;6.05;5.45;;;;;;;;;;5141149;27;20051;-49
2022/06/09 00:48:31;;;;;;;6.40;3.80;;;;;;;;;;5145076;27;20587;-46
2022/06/09 00:51:04;;;;;;;12.73;5.68;;;;;;;;;;5144926;27;20152;-46
2022/06/09 00:53:32;;;;;;;7.88;5.30;;;;;;;;;;5141083;27;20067;-48
2022/06/09 00:55:58;;;;;;;6.55;5.55;;;;;;;;;;5147485;27;20099;-46
2022/06/09 00:58:25;;;;;;;9.23;6.00;;;;;;;;;;5145758;27;20129;-46
2022/06/09 01:00:52;;;;;;;8.13;5.68;;;;;;;;;;5141460;27;20085;-47
2022/06/09 01:03:20;;;;;;;7.82;5.60;;;;;;;;;;5140819;27;20036;-44
2022/06/09 01:05:47;;;;;;;6.13;4.30;;;;;;;;;;5144050;27;20066;-46
2022/06/09 01:08:13;;;;;;;8.70;6.40;;;;;;;;;;5144252;27;20043;-47
2022/06/09 01:10:39;;;;;;;7.93;5.35;;;;;;;;;;5136575;27;20039;-46
2022/06/09 01:13:04;;;;;;;15.57;6.40;;;;;;;;;;5143995;27;20038;-49
2022/06/09 01:15:33;;;;;;;10.15;5.25;;;;;;;;;;5125411;27;20497;-45
2022/06/09 01:17:58;;;;;;;15.73;5.15;;;;;;;;;;5141816;27;20945;-45
2022/06/09 01:20:32;;;;;;;5.47;4.72;;;;;;;;;;5141087;27;20118;-44
2022/06/09 01:23:16;;;;;;;6.97;5.15;;;;;;;;;;5144170;27;20154;-44
2022/06/09 01:26:10;;;;;;;7.60;6.43;;;;;;;;;;5143753;27;20489;-46
2022/06/09 01:28:59;;;;;;;7.22;5.20;;;;;;;;;;5054810;27;20099;-46
2022/06/09 01:31:33;;;;;;;8.25;5.07;;;;;;;;;;5112205;27;20046;-48
2022/06/09 01:34:01;;;;;;;118.55;18.02;;;;;;;;;;5138946;27;20037;-46
2022/06/09 01:36:26;;;;;;;5.13;4.63;;;;;;;;;;5142860;27;20039;-45
2022/06/09 01:38:57;;;;;;;6.32;4.78;;;;;;;;;;5140324;27;20181;-44
2022/06/09 01:41:23;;;;;;;4.50;4.07;;;;;;;;;;5144079;27;20053;-46
2022/06/09 01:43:49;;;;;;;9.20;5.63;;;;;;;;;;5145112;27;20070;-44
2022/06/09 01:46:23;;;;;;;8.05;3.80;;;;;;;;;;5144151;27;20127;-49
2022/06/09 01:48:51;;;;;;;5.80;4.72;;;;;;;;;;5136500;27;20043;-49
2022/06/09 01:51:18;;;;;;;5.47;4.00;;;;;;;;;;5142653;27;20099;-47
2022/06/09 01:53:46;;;;;;;7.90;4.78;;;;;;;;;;5141829;27;20797;-48
2022/06/09 01:56:27;;;;;;;10.68;5.07;;;;;;;;;;5141290;27;20050;-45
2022/06/09 01:58:55;;;;;;;7.72;5.00;;;;;;;;;;5143716;27;20066;-44
2022/06/09 02:01:22;;;;;;;6.03;3.55;;;;;;;;;;5146550;27;20045;-48
2022/06/09 02:03:49;;;;;;;8.73;4.32;;;;;;;;;;5142570;27;20594;-46
2022/06/09 02:06:15;;;;;;;9.48;5.68;;;;;;;;;;5140322;27;20058;-45
2022/06/09 02:08:40;;;;;;;10.38;6.28;;;;;;;;;;5141052;27;20030;-45
2022/06/09 02:11:10;;;;;;;9.25;4.82;;;;;;;;;;5140979;27;20046;-48
2022/06/09 02:13:47;;;;;;;11.48;4.18;;;;;;;;;;5140985;27;20142;-46
2022/06/09 02:16:14;;;;;;;12.77;5.65;;;;;;;;;;5140564;27;20057;-46
2022/06/09 02:18:41;;;;;;;8.57;5.38;;;;;;;;;;5142141;27;20043;-47
2022/06/09 02:21:30;;;;;;;5.68;4.63;;;;;;;;;;5141289;27;20114;-47
2022/06/09 02:23:55;;;;;;;5.78;4.53;;;;;;;;;;5132848;27;20131;-45
2022/06/09 02:26:21;;;;;;;9.35;5.32;;;;;;;;;;5144021;27;20028;-46
2022/06/09 02:28:47;;;;;;;7.75;5.68;;;;;;;;;;5143124;27;20130;-44
2022/06/09 02:31:12;;;;;;;10.05;5.22;;;;;;;;;;5141498;27;20219;-45
2022/06/09 02:33:38;;;;;;;12.55;7.00;;;;;;;;;;5142282;27;20047;-43
2022/06/09 02:36:03;;;;;;;11.90;5.15;;;;;;;;;;5122923;27;20545;-45
2022/06/09 02:38:29;;;;;;;6.03;4.70;;;;;;;;;;5141539;27;20566;-50
2022/06/09 02:40:54;;;;;;;7.47;5.45;;;;;;;;;;5140098;27;20429;-43
2022/06/09 02:43:20;;;;;;;9.80;5.10;;;;;;;;;;5138481;27;20623;-47
2022/06/09 02:45:45;;;;;;;7.43;5.43;;;;;;;;;;5140095;27;20146;-46
2022/06/09 02:48:12;;;;;;;7.70;5.78;;;;;;;;;;5143527;27;20043;-45
2022/06/09 02:50:38;;;;;;;7.28;5.97;;;;;;;;;;5142148;27;20046;-46
2022/06/09 02:53:03;;;;;;;8.43;6.63;;;;;;;;;;5142850;27;20039;-49
2022/06/09 02:55:29;;;;;;;10.43;5.32;;;;;;;;;;5140719;27;20458;-44
2022/06/09 02:57:54;;;;;;;7.45;5.40;;;;;;;;;;5123686;27;20052;-48
2022/06/09 03:00:20;;;;;;;7.50;4.80;;;;;;;;;;5139148;27;20047;-47
2022/06/09 03:02:53;;;;;;;9.45;5.00;;;;;;;;;;5141776;27;20055;-44
2022/06/09 03:05:19;;;;;;;5.68;4.63;;;;;;;;;;5142372;27;20039;-44
2022/06/09 03:07:45;;;;;;;8.48;5.25;;;;;;;;;;5140071;27;20552;-47
2022/06/09 03:10:10;;;;;;;9.13;6.03;;;;;;;;;;5138282;27;20126;-48
2022/06/09 03:12:35;;;;;;;9.63;5.07;;;;;;;;;;5139249;27;20031;-45
2022/06/09 03:15:01;;;;;;;13.05;5.95;;;;;;;;;;5141662;27;20468;-45
2022/06/09 03:17:26;;;;;;;7.78;5.18;;;;;;;;;;5138774;27;20069;-47
2022/06/09 03:19:52;;;;;;;4.32;3.80;;;;;;;;;;5143807;27;20592;-47
2022/06/09 03:22:17;;;;;;;10.00;5.50;;;;;;;;;;5138727;27;20340;-45
2022/06/09 03:24:43;;;;;;;16.15;6.18;;;;;;;;;;5138653;27;20042;-48
2022/06/09 03:27:09;;;;;;;14.40;5.00;;;;;;;;;;5135635;27;20049;-46
2022/06/09 03:29:34;;;;;;;5.43;4.88;;;;;;;;;;5139988;27;20051;-48
2022/06/09 03:31:59;;;;;;;9.40;6.78;;;;;;;;;;5142388;27;20087;-44
2022/06/09 03:34:25;;;;;;;6.43;4.95;;;;;;;;;;5139146;27;20478;-47
2022/06/09 03:36:50;;;;;;;7.90;7.10;;;;;;;;;;5140722;27;20092;-44
2022/06/09 03:39:15;;;;;;;9.05;5.35;;;;;;;;;;5138150;27;20045;-47
2022/06/09 03:41:41;;;;;;;7.00;4.75;;;;;;;;;;5140594;27;20038;-46
2022/06/09 03:44:06;;;;;;;11.63;6.35;;;;;;;;;;5141710;27;20064;-45
2022/06/09 03:46:32;;;;;;;6.55;5.30;;;;;;;;;;5142190;27;20110;-44
2022/06/09 03:48:57;;;;;;;6.93;5.38;;;;;;;;;;5140041;27;20102;-48
2022/06/09 03:51:23;;;;;;;8.02;5.65;;;;;;;;;;5142852;27;20033;-47
2022/06/09 03:53:48;;;;;;;11.30;5.65;;;;;;;;;;5141768;27;20549;-47
2022/06/09 03:56:15;;;;;;;5.32;4.45;;;;;;;;;;5137556;27;20039;-45
2022/06/09 03:58:41;;;;;;;7.05;5.22;;;;;;;;;;5138336;27;20060;-42
2022/06/09 04:01:06;;;;;;;10.30;4.30;;;;;;;;;;5139898;27;20474;-43
2022/06/09 04:03:32;;;;;;;4.03;3.63;;;;;;;;;;5141595;27;20413;-45
2022/06/09 04:05:57;;;;;;;32.58;5.40;;;;;;;;;;5139108;27;20043;-49
2022/06/09 04:08:22;;;;;;;11.15;4.82;;;;;;;;;;5139992;27;20046;-48
2022/06/09 04:10:48;;;;;;;11.45;4.43;;;;;;;;;;5140331;27;20235;-45
2022/06/09 04:13:15;;;;;;;6.60;4.38;;;;;;;;;;5138892;27;20596;-44
2022/06/09 04:15:40;;;;;;;9.52;4.88;;;;;;;;;;5139714;27;20051;-45
2022/06/09 04:18:06;;;;;;;4.43;3.40;;;;;;;;;;5140076;27;20107;-46
2022/06/09 04:20:32;;;;;;;5.70;4.40;;;;;;;;;;5140432;27;20035;-43
2022/06/09 04:22:57;;;;;;;23.98;5.57;;;;;;;;;;5139293;27;20057;-43
2022/06/09 04:25:22;;;;;;;16.33;5.00;;;;;;;;;;5139561;27;20089;-44
2022/06/09 04:27:48;;;;;;;32.53;9.20;;;;;;;;;;5142111;27;20051;-42
2022/06/09 04:30:14;;;;;;;5.35;3.40;;;;;;;;;;5139969;27;20572;-44
2022/06/09 04:32:39;;;;;;;9.15;4.80;;;;;;;;;;5140695;27;20125;-43
2022/06/09 04:35:05;;;;;;;58.97;13.63;;;;;;;;;;5139090;27;20081;-47
2022/06/09 04:40:14;;;;;;;27.60;4.47;;;;;;;;;;5134919;27;20053;-48
2022/06/09 04:42:39;;;;;;;8.23;4.53;;;;;;;;;;5139320;27;20047;-46
2022/06/09 04:45:05;;;;;;;105.50;17.75;;;;;;;;;;5136546;27;20038;-45
2022/06/09 04:47:30;;;;;;;51.58;10.40;;;;;;;;;;5137277;27;20118;-44
2022/06/09 04:49:55;;;;;;;81.97;12.52;;;;;;;;;;5134859;27;20961;-46
2022/06/09 04:52:21;;;;;;;21.27;6.25;;;;;;;;;;5140132;27;20047;-45
2022/06/09 04:54:46;;;;;;;13.52;6.78;;;;;;;;;;5140451;27;20134;-46
2022/06/09 04:57:11;;;;;;;24.35;9.70;;;;;;;;;;5141493;27;20403;-46
2022/06/09 04:59:37;;;;;;;56.88;11.77;;;;;;;;;;5137710;27;20046;-46
2022/06/09 05:02:02;;;;;;;59.17;10.27;;;;;;;;;;5137409;27;20050;-46
2022/06/09 05:04:27;;;;;;;13.43;4.95;;;;;;;;;;5141453;27;20043;-45
2022/06/09 05:06:53;;;;;;;5.78;4.57;;;;;;;;;;5137132;27;20399;-45
2022/06/09 05:09:18;;;;;;;11.13;5.45;;;;;;;;;;5138368;27;20050;-48
2022/06/09 05:11:44;;;;;;;6.25;3.92;;;;;;;;;;5136220;27;20039;-48
2022/06/09 05:14:09;;;;;;;16.20;4.53;;;;;;;;;;5137629;27;20135;-48
2022/06/09 05:16:35;;;;;;;12.60;4.78;;;;;;;;;;5139259;27;20272;-46
2022/06/09 05:19:00;;;;;;;11.50;4.68;;;;;;;;;;5136880;27;20139;-45
2022/06/09 05:21:25;;;;;;;9.73;6.50;;;;;;;;;;5141107;27;20087;-50
2022/06/09 05:23:51;;;;;;;5.45;4.93;;;;;;;;;;5139615;27;20133;-45
2022/06/09 05:26:16;;;;;;;13.63;5.50;;;;;;;;;;5138313;27;20466;-46
2022/06/09 05:28:41;;;;;;;275.75;38.22;;;;;;;;;;5137790;27;20054;-47
2022/06/09 05:31:07;;;;;;;21.50;7.38;;;;;;;;;;5139218;27;20030;-46
2022/06/09 05:33:32;;;;;;;6.93;5.97;;;;;;;;;;5139915;27;20035;-46
2022/06/09 05:35:57;;;;;;;65.75;12.15;;;;;;;;;;5141722;27;20039;-46
2022/06/09 05:46:37;;;;;;;33.00;6.90;;;;;;;;;;5146281;27;20042;-49
2022/06/09 05:49:03;;;;;;;41.53;11.50;;;;;;;;;;5143280;27;20027;-50
2022/06/09 05:51:30;;;;;;;8.57;5.30;;;;;;;;;;5137715;27;20042;-43
2022/06/09 05:53:55;;;;;;;236.95;42.40;;;;;;;;;;5143686;27;20185;-45
2022/06/09 05:56:20;;;;;;;27.80;10.32;;;;;;;;;;5141101;27;20130;-45
2022/06/09 05:58:46;;;;;;;19.20;6.25;;;;;;;;;;5140088;27;20123;-44
2022/06/09 06:01:12;;;;;;;19.30;7.35;;;;;;;;;;5142749;27;20386;-49
2022/06/09 06:03:38;;;;;;;90.80;15.82;;;;;;;;;;5142955;27;20110;-46
2022/06/09 06:08:47;;;;;;;12.10;5.80;;;;;;;;;;5139678;27;20122;-43
2022/06/09 06:11:14;;;;;;;8.02;4.63;;;;;;;;;;5141979;27;20035;-46
2022/06/09 06:13:40;;;;;;;5.63;4.78;;;;;;;;;;5141980;27;20043;-46
2022/06/09 06:16:06;;;;;;;25.17;19.70;;;;;;;;;;5141427;27;20737;-45
2022/06/09 06:18:31;;;;;;;33.35;20.38;;;;;;;;;;5142397;27;20414;-44
2022/06/09 06:20:56;;;;;;;20.58;13.93;;;;;;;;;;5141586;27;20047;-44
2022/06/09 06:23:22;;;;;;;31.50;16.00;;;;;;;;;;5142633;27;20453;-47
2022/06/09 06:25:48;;;;;;;22.65;16.13;;;;;;;;;;5142057;27;20054;-44
2022/06/09 06:28:13;;;;;;;56.65;20.38;;;;;;;;;;5143616;27;20493;-43
2022/06/09 06:30:38;;;;;;;21.08;14.68;;;;;;;;;;5141949;27;20489;-47
2022/06/09 06:33:04;;;;;;;24.92;15.75;;;;;;;;;;5141666;27;20448;-43
2022/06/09 06:35:29;;;;;;;24.23;15.70;;;;;;;;;;5142999;27;20083;-50
2022/06/09 06:37:54;;;;;;;20.83;13.98;;;;;;;;;;5140685;27;20496;-48
2022/06/09 06:40:20;;;;;;;38.97;18.73;;;;;;;;;;5143254;27;20042;-49
2022/06/09 06:42:45;;;;;;;20.55;11.75;;;;;;;;;;5141334;27;20121;-46
2022/06/09 06:45:11;;;;;;;9.88;7.88;;;;;;;;;;5142053;27;20047;-47
2022/06/09 06:47:38;;;;;;;13.32;7.35;;;;;;;;;;5142016;27;20042;-51
2022/06/09 06:50:04;;;;;;;215.40;36.42;;;;;;;;;;5144454;27;20054;-48
2022/06/09 06:52:29;;;;;;;13.85;6.68;;;;;;;;;;5124249;27;20054;-52
2022/06/09 06:54:54;;;;;;;9.07;6.50;;;;;;;;;;5140076;27;20054;-47
2022/06/09 06:57:20;;;;;;;49.30;19.83;;;;;;;;;;5141593;27;20498;-43
2022/06/09 06:59:45;;;;;;;89.57;21.65;;;;;;;;;;5143133;27;20727;-59
2022/06/09 07:02:11;;;;;;;14.40;9.63;;;;;;;;;;5137991;27;20047;-59
2022/06/09 07:04:37;;;;;;;11.60;7.38;;;;;;;;;;5139999;27;20192;-60
2022/06/09 07:07:02;;;;;;;8.48;5.78;;;;;;;;;;5141502;27;20158;-59
2022/06/09 07:09:28;;;;;;;53.40;11.68;;;;;;;;;;5141638;27;20050;-59
2022/06/09 07:11:53;;;;;;;11.45;5.07;;;;;;;;;;5144352;27;20059;-59
2022/06/09 07:14:18;;;;;;;8.23;5.53;;;;;;;;;;5140392;27;20046;-59
2022/06/09 07:16:44;;;;;;;5.95;4.68;;;;;;;;;;5140669;27;20039;-59
2022/06/09 07:19:09;;;;;;;17.17;6.88;;;;;;;;;;5139242;27;20470;-60
2022/06/09 07:21:34;;;;;;;32.15;7.72;;;;;;;;;;5138990;27;20066;-59
2022/06/09 07:24:00;;;;;;;66.07;11.82;;;;;;;;;;5140853;27;20043;-59
2022/06/09 07:26:25;;;;;;;63.95;10.38;;;;;;;;;;5138386;27;20391;-59
2022/06/09 07:28:50;;;;;;;19.85;7.55;;;;;;;;;;5138637;27;20445;-57
2022/06/09 07:31:16;;;;;;;32.47;11.00;;;;;;;;;;5135327;27;20074;-57
2022/06/09 07:33:41;;;;;;;4.53;2.90;;;;;;;;;;5136538;27;20039;-57
2022/06/09 07:36:08;;;;;;;22.65;3.97;;;;;;;;;;5135993;27;20519;-59
2022/06/09 07:38:34;;;;;;;15.85;3.30;;;;;;;;;;5144900;27;20047;-57
2022/06/09 07:40:59;;;;;;;26.27;4.30;;;;;;;;;;5135899;27;20535;-57
2022/06/09 07:43:25;;;;;;;11.25;3.83;;;;;;;;;;5138227;27;20059;-55
2022/06/09 07:45:50;;;;;;;5.38;2.33;;;;;;;;;;5141556;27;20049;-57
2022/06/09 07:48:18;;;;;;;545.08;111.55;;;;;;;;;;5138839;27;20051;-57
2022/06/09 07:50:45;;;;;;;3.00;1.80;;;;;;;;;;5138111;27;20142;-58
2022/06/09 07:53:10;;;;;;;5.75;1.67;;;;;;;;;;5141701;27;20068;-58
2022/06/09 07:55:36;;;;;;;3.22;1.60;;;;;;;;;;5140068;27;20039;-58
2022/06/09 07:58:01;;;;;;;2.70;1.42;;;;;;;;;;5137254;27;20053;-58
2022/06/09 08:00:26;;;;;;;7.18;2.13;;;;;;;;;;5138953;27;20023;-58
2022/06/09 08:02:52;;;;;;;6.15;3.33;;;;;;;;;;5142127;27;20043;-58
2022/06/09 08:05:19;;;;;;;89.43;16.95;;;;;;;;;;5137011;27;20047;-57
2022/06/09 08:07:44;;;;;;;4.32;1.95;;;;;;;;;;5139834;27;20142;-57
2022/06/09 08:10:13;;;;;;;7.93;2.83;;;;;;;;;;5141632;27;20564;-58
2022/06/09 08:12:39;;;;;;;21.88;1.92;;;;;;;;;;5140118;27;20054;-58
2022/06/09 08:15:05;;;;;;;7.72;2.13;;;;;;;;;;5138871;27;20050;-58
2022/06/09 08:17:31;;;;;;;99.93;19.95;;;;;;;;;;5140460;27;20051;-58
2022/06/09 08:19:56;;;;;;;2.63;1.42;;;;;;;;;;5139006;27;20145;-59
2022/06/09 08:22:21;;;;;;;2.70;1.33;;;;;;;;;;5136916;27;20468;-58
2022/06/09 08:24:47;;;;;;;349.98;54.92;;;;;;;;;;5139550;27;20092;-59
2022/06/09 08:27:12;;;;;;;1.63;1.00;;;;;;;;;;5142006;27;20392;-59
2022/06/09 08:29:38;;;;;;;9.93;1.45;;;;;;;;;;5139749;27;20069;-59
2022/06/09 08:32:04;;;;;;;2.70;1.83;;;;;;;;;;5139988;27;20055;-59
2022/06/09 08:34:29;;;;;;;7.88;4.38;;;;;;;;;;5143583;27;20058;-59
2022/06/09 08:36:54;;;;;;;12.35;3.35;;;;;;;;;;5136585;27;20034;-59
2022/06/09 08:39:20;;;;;;;6.28;2.53;;;;;;;;;;5138773;27;20532;-57
2022/06/09 08:41:55;;;;;;;30.98;6.82;;;;;;;;;;5137688;27;20122;-55
2022/06/09 08:44:26;;;;;;;5.78;1.80;;;;;;;;;;5141159;27;20542;-56
2022/06/09 08:46:51;;;;;;;12.85;4.15;;;;;;;;;;5138905;27;20043;-55
2022/06/09 08:49:29;;;;;;;10.13;1.48;;;;;;;;;;5142029;27;20606;-56
2022/06/09 08:51:57;;;;;;;13.02;3.38;;;;;;;;;;5139680;27;20049;-58
2022/06/09 08:54:27;;;;;;;4.95;2.67;;;;;;;;;;5138376;27;20035;-57
2022/06/09 08:56:53;;;;;;;3.17;1.40;;;;;;;;;;5139648;27;20047;-58
2022/06/09 08:59:28;;;;;;;5.25;1.67;;;;;;;;;;5140161;27;20035;-57
2022/06/09 09:01:56;;;;;;;1.35;0.77;;;;;;;;;;5136353;27;20042;-58
2022/06/09 09:04:31;;;;;;;76.53;9.43;;;;;;;;;;5138047;27;20534;-57
2022/06/09 09:07:05;;;;;;;5.13;1.77;;;;;;;;;;5142258;27;20122;-58
2022/06/09 09:09:31;;;;;;;9.48;3.15;;;;;;;;;;5143149;27;20494;-58
2022/06/09 09:12:03;;;;;;;11.73;1.67;;;;;;;;;;5140197;27;20091;-58
2022/06/09 09:14:48;;;;;;;5.30;1.92;;;;;;;;;;5141421;27;20108;-58
2022/06/09 09:17:14;;;;;;;5.07;4.00;;;;;;;;;;5143187;27;20038;-57
2022/06/09 09:19:39;;;;;;;4.10;1.88;;;;;;;;;;5144024;27;20038;-57
2022/06/09 09:22:23;;;;;;;6.57;2.13;;;;;;;;;;5141401;27;20475;-57
2022/06/09 09:24:58;;;;;;;5.00;1.33;;;;;;;;;;5143255;27;20042;-58
2022/06/09 09:27:35;;;;;;;5.68;1.02;;;;;;;;;;5139628;27;20391;-58
2022/06/09 09:30:03;;;;;;;9.43;2.35;;;;;;;;;;5139020;27;20633;-57
2022/06/09 09:32:38;;;;;;;7.70;4.40;;;;;;;;;;5139253;27;20189;-57
2022/06/09 09:35:14;;;;;;;7.35;3.17;;;;;;;;;;5137589;27;20064;-58
2022/06/09 09:37:44;;;;;;;3.97;1.55;;;;;;;;;;5142647;27;20039;-58
2022/06/09 09:40:12;;;;;;;4.15;0.85;;;;;;;;;;5139916;27;20179;-58
2022/06/09 09:42:39;;;;;;;3.50;1.25;;;;;;;;;;5141038;27;20058;-58
2022/06/09 09:45:04;;;;;;;7.60;1.58;;;;;;;;;;5143133;27;20051;-58
2022/06/09 09:47:30;;;;;;;1.00;0.70;;;;;;;;;;5141560;27;20046;-58
2022/06/09 09:50:05;;;;;;;4.75;1.23;;;;;;;;;;5137913;27;20122;-57
2022/06/09 09:52:39;;;;;;;2.20;1.08;;;;;;;;;;5141550;27;20141;-57
2022/06/09 09:55:28;;;;;;;7.72;1.65;;;;;;;;;;5140093;27;20158;-58
2022/06/09 09:58:13;;;;;;;1.80;1.00;;;;;;;;;;5129608;27;20047;-58
2022/06/09 10:00:39;;;;;;;4.70;1.98;;;;;;;;;;5141651;27;20035;-57
2022/06/09 10:08:46;;;;;;;4.30;2.40;;;;;;;;;;5143584;27;20712;-57
2022/06/09 10:14:18;;;;;;;1.80;1.20;;;;;;;;;;5139641;27;20091;-57
2022/06/09 10:16:48;;;;;;;1.90;1.27;;;;;;;;;;5140813;27;20058;-58
2022/06/09 10:19:17;;;;;;;2.92;1.33;;;;;;;;;;5144742;27;20115;-58
2022/06/09 10:21:50;;;;;;;549.60;131.82;;;;;;;;;;5142657;27;20053;-57
2022/06/09 10:24:18;;;;;;;686.83;124.03;;;;;;;;;;5145346;27;20047;-57
2022/06/09 10:26:46;;;;;;;81.50;9.68;;;;;;;;;;5141239;27;20046;-57
2022/06/09 10:29:14;;;;;;;82.82;9.68;;;;;;;;;;5142799;27;20047;-57
2022/06/09 10:31:50;;;;;;;11.35;2.38;;;;;;;;;;5140105;27;20042;-57
2022/06/09 10:34:29;;;;;;;3.35;0.98;;;;;;;;;;5140348;27;20043;-59
2022/06/09 10:37:07;;;;;;;7.80;1.52;;;;;;;;;;5140396;27;20189;-57
2022/06/09 10:39:51;;;;;;;7.15;1.70;;;;;;;;;;5139977;27;20505;-58
2022/06/09 10:42:22;;;;;;;7.53;1.58;;;;;;;;;;5140741;27;20062;-57
2022/06/09 10:45:05;;;;;;;9.82;1.88;;;;;;;;;;5139408;27;20065;-58
2022/06/09 10:56:23;;;;;;;2.03;1.08;;;;;;;;;;5104699;27;20060;-57
2022/06/09 10:58:56;;;;;;;0.77;0.47;;;;;;;;;;5143437;27;20047;-58
2022/06/09 11:01:24;;;;;;;56.00;9.15;;;;;;;;;;5144398;27;20043;-58
2022/06/09 11:03:50;;;;;;;24.80;2.67;;;;;;;;;;5139439;27;20062;-58
2022/06/09 11:06:15;;;;;;;43.42;6.00;;;;;;;;;;5142136;27;20056;-57
2022/06/09 11:08:59;;;;;;;4.43;1.60;;;;;;;;;;5137649;27;20039;-56
2022/06/09 11:11:30;;;;;;;3.55;2.10;;;;;;;;;;5141914;27;20034;-57
2022/06/09 11:13:55;;;;;;;48.03;5.68;;;;;;;;;;5141747;27;20137;-57
2022/06/09 11:16:34;;;;;;;89.43;10.05;;;;;;;;;;5140576;27;20122;-57
2022/06/09 11:19:00;;;;;;;5.47;1.10;;;;;;;;;;5136936;27;20462;-57
2022/06/09 11:21:43;;;;;;;11.98;1.50;;;;;;;;;;5142018;27;20045;-58
2022/06/09 11:24:27;;;;;;;14.68;3.33;;;;;;;;;;5142620;27;20038;-56
2022/06/09 11:26:58;;;;;;;59.58;14.43;;;;;;;;;;5139279;27;20051;-58
2022/06/09 11:29:30;;;;;;;191.50;36.50;;;;;;;;;;5137589;27;20751;-57
2022/06/09 11:32:09;;;;;;;122.15;41.47;;;;;;;;;;5139099;27;20126;-57
2022/06/09 11:34:54;;;;;;;10.85;8.43;;;;;;;;;;5141020;27;20075;-57
2022/06/09 11:37:45;;;;;;;38.95;35.25;;;;;;;;;;5137484;27;20062;-55
2022/06/09 11:40:17;;;;;;;32.90;25.42;;;;;;;;;;5083733;27;20042;-49
2022/06/09 11:42:42;;;;;;;29.30;26.63;;;;;;;;;;5141562;27;20047;-47
2022/06/09 11:45:23;;;;;;;22.45;17.95;;;;;;;;;;5137227;27;20051;-51
2022/06/09 11:47:48;;;;;;;13.88;12.57;;;;;;;;;;5136693;27;20673;-50
2022/06/09 11:50:16;;;;;;;40.85;36.47;;;;;;;;;;5139786;27;20046;-52
2022/06/09 11:52:45;;;;;;;26.83;15.00;;;;;;;;;;5142383;27;20138;-50
2022/06/09 11:55:23;;;;;;;442.55;96.05;;;;;;;;;;5140954;27;20107;-52
2022/06/09 11:57:49;;;;;;;27.13;24.90;;;;;;;;;;5138127;27;20441;-49
2022/06/09 12:00:26;;;;;;;17.67;14.38;;;;;;;;;;5138778;27;20043;-52
2022/06/09 12:03:00;;;;;;;23.83;21.35;;;;;;;;;;5139383;27;20065;-50
2022/06/09 12:05:34;;;;;;;30.45;27.27;;;;;;;;;;5137922;27;20084;-66
2022/06/09 12:08:07;;;;;;;29.15;26.27;;;;;;;;;;5138745;27;20046;-59
2022/06/09 12:10:33;;;;;;;44.60;28.85;;;;;;;;;;5138012;27;20088;-59
2022/06/09 12:13:13;;;;;;;32.53;22.65;;;;;;;;;;5139532;27;20043;-57
2022/06/09 12:15:48;;;;;;;23.75;21.65;;;;;;;;;;5137380;27;20118;-57
2022/06/09 12:18:17;;;;;;;39.63;22.17;;;;;;;;;;5138282;27;20083;-57
2022/06/09 12:20:56;;;;;;;29.27;19.65;;;;;;;;;;5141787;27;20073;-58
2022/06/09 12:23:22;;;;;;;15.48;4.90;;;;;;;;;;5139304;27;20031;-58
2022/06/09 12:26:05;;;;;;;11.85;9.52;;;;;;;;;;5140135;27;20042;-58
2022/06/09 12:28:49;;;;;;;9.68;7.80;;;;;;;;;;5137373;27;20042;-58
2022/06/09 12:31:16;;;;;;;22.05;20.05;;;;;;;;;;5138831;27;20041;-58
2022/06/09 12:34:02;;;;;;;24.50;22.50;;;;;;;;;;5138132;27;20046;-58
2022/06/09 12:36:46;;;;;;;20.23;18.50;;;;;;;;;;5129203;27;20160;-58
2022/06/09 12:39:17;;;;;;;46.10;31.80;;;;;;;;;;5137852;27;20579;-58
2022/06/09 12:41:48;;;;;;;26.55;23.95;;;;;;;;;;5138379;27;20054;-58
2022/06/09 12:44:24;;;;;;;3.47;1.85;;;;;;;;;;5142595;27;20138;-58
2022/06/09 12:46:54;;;;;;;7.43;2.10;;;;;;;;;;5142502;27;20034;-58
2022/06/09 12:49:29;;;;;;;6.00;1.95;;;;;;;;;;5141617;27;20038;-57
2022/06/09 12:51:55;;;;;;;7.28;3.47;;;;;;;;;;5141567;27;20054;-58
2022/06/09 12:54:32;;;;;;;11.00;8.43;;;;;;;;;;5140792;27;20138;-58
2022/06/09 12:57:00;;;;;;;15.27;10.32;;;;;;;;;;5140114;27;20545;-57
2022/06/09 12:59:30;;;;;;;17.77;12.23;;;;;;;;;;5138756;27;20042;-57
2022/06/09 13:01:58;;;;;;;10.43;3.92;;;;;;;;;;5139891;27;20460;-57
2022/06/09 13:04:26;;;;;;;5.03;4.07;;;;;;;;;;5142026;27;20430;-58
2022/06/09 13:06:51;;;;;;;25.83;21.80;;;;;;;;;;5143079;27;20669;-57
2022/06/09 13:09:19;;;;;;;20.70;18.73;;;;;;;;;;5141301;27;20097;-57
2022/06/09 13:14:30;;;;;;;11.35;10.35;;;;;;;;;;5128320;27;20073;-57
2022/06/09 13:16:57;;;;;;;4.38;3.58;;;;;;;;;;5142821;27;20120;-57
2022/06/09 13:19:24;;;;;;;9.63;8.73;;;;;;;;;;5138292;27;20047;-57
2022/06/09 13:21:50;;;;;;;12.30;7.57;;;;;;;;;;5140235;27;20043;-57
2022/06/09 13:24:22;;;;;;;19.55;17.70;;;;;;;;;;5142359;27;20031;-57
2022/06/09 13:26:48;;;;;;;11.52;10.52;;;;;;;;;;5140504;27;20099;-57
2022/06/09 13:29:21;;;;;;;17.52;15.77;;;;;;;;;;5141033;27;20505;-57
2022/06/09 13:31:48;;;;;;;7.30;5.43;;;;;;;;;;5140723;27;20042;-57
2022/06/09 13:34:13;;;;;;;13.65;12.40;;;;;;;;;;5136067;27;20724;-57
2022/06/09 13:36:39;;;;;;;7.53;6.40;;;;;;;;;;5138342;27;20039;-56
2022/06/09 13:39:36;;;;;;;14.68;13.13;;;;;;;;;;5138607;27;20042;-57
2022/06/09 13:42:17;;;;;;;10.07;3.30;;;;;;;;;;5095042;27;20125;-56
2022/06/09 13:45:02;;;;;;;17.88;16.10;;;;;;;;;;5142328;27;20054;-56
2022/06/09 13:47:33;;;;;;;16.77;12.93;;;;;;;;;;5126293;27;20038;-57
2022/06/09 13:50:11;;;;;;;12.27;10.15;;;;;;;;;;5138560;27;20771;-56
2022/06/09 13:52:36;;;;;;;7.22;6.38;;;;;;;;;;5146003;27;20047;-56
2022/06/09 13:55:04;;;;;;;14.95;8.90;;;;;;;;;;5139051;27;20043;-56
2022/06/09 13:57:40;;;;;;;12.00;10.80;;;;;;;;;;5142476;27;20568;-56
2022/06/09 14:00:08;;;;;;;6.35;5.75;;;;;;;;;;5141309;27;20638;-56
2022/06/09 14:02:50;;;;;;;12.20;9.30;;;;;;;;;;5142110;27;20058;-56
2022/06/09 14:05:15;;;;;;;96.60;19.80;;;;;;;;;;5139874;27;20071;-56
2022/06/09 14:07:41;;;;;;;9.95;9.00;;;;;;;;;;5139128;27;20074;-56
2022/06/09 14:10:14;;;;;;;11.15;9.90;;;;;;;;;;5140779;27;20130;-56
2022/06/09 14:12:40;;;;;;;12.55;11.43;;;;;;;;;;5143589;27;20704;-56
2022/06/09 14:15:08;;;;;;;10.15;9.07;;;;;;;;;;5133891;27;20039;-57
2022/06/09 14:17:33;;;;;;;132.90;22.73;;;;;;;;;;5139973;27;20332;-57
2022/06/09 14:19:59;;;;;;;387.58;60.95;;;;;;;;;;5142807;27;20529;-59
2022/06/09 14:22:24;;;;;;;40.45;8.43;;;;;;;;;;5140170;27;20040;-58
2022/06/09 14:24:51;;;;;;;16.48;4.55;;;;;;;;;;5143909;27;20092;-57
2022/06/09 14:27:16;;;;;;;29.25;9.50;;;;;;;;;;5139370;27;20160;-57
2022/06/09 14:29:41;;;;;;;19.90;9.57;;;;;;;;;;5140238;27;20142;-57
2022/06/09 14:32:13;;;;;;;4.13;3.72;;;;;;;;;;5141453;27;20081;-57
2022/06/09 14:34:39;;;;;;;8.48;7.75;;;;;;;;;;5139628;27;20031;-57
2022/06/09 14:37:04;;;;;;;8.45;7.65;;;;;;;;;;5143381;27;20158;-56
2022/06/09 14:39:29;;;;;;;11.10;5.03;;;;;;;;;;5142469;27;20091;-56
2022/06/09 14:41:55;;;;;;;4.15;2.58;;;;;;;;;;5142501;27;20084;-56
2022/06/09 14:44:20;;;;;;;17.45;8.27;;;;;;;;;;5135122;27;20035;-57
2022/06/09 14:46:46;;;;;;;7.68;6.93;;;;;;;;;;5138426;27;20422;-56
2022/06/09 14:49:17;;;;;;;6.63;6.03;;;;;;;;;;5139403;27;20037;-57
2022/06/09 14:51:42;;;;;;;11.30;7.25;;;;;;;;;;5140627;27;20130;-57
2022/06/09 14:54:08;;;;;;;5.75;5.13;;;;;;;;;;5141355;27;20129;-57
2022/06/09 14:56:35;;;;;;;8.63;4.63;;;;;;;;;;5141311;27;20035;-57
2022/06/09 14:59:01;;;;;;;7.13;5.93;;;;;;;;;;5119939;27;20071;-57
2022/06/09 15:01:26;;;;;;;9.60;8.73;;;;;;;;;;5140454;27;20121;-57
2022/06/09 15:03:52;;;;;;;114.15;21.20;;;;;;;;;;5139676;27;20046;-56
2022/06/09 15:06:18;;;;;;;3.40;2.47;;;;;;;;;;5141391;27;20039;-57
2022/06/09 15:08:44;;;;;;;8.90;6.95;;;;;;;;;;5138817;27;20039;-56
2022/06/09 15:11:10;;;;;;;4.35;3.03;;;;;;;;;;5139772;27;20612;-56
2022/06/09 15:13:35;;;;;;;2.83;2.45;;;;;;;;;;5140319;27;20089;-56
2022/06/09 15:16:03;;;;;;;3.60;3.13;;;;;;;;;;5138988;27;20039;-56